Kansas City, Missouri
Traffic Map
Current Weather Conditions
Kansas City, Missouri
Overcast
Overcast
-4°
Feels Like: -10°
Wind Chill: -10° Ceiling: 6500
Heat Index: -4° Visibility: 10mi
Dew Point: -15° Wind: 10mph
Humidity: 44% Direction: 90° (E)
Pressure: 30.2in Gusts: 0mph
Raw Report DataKMKC 140554Z 09009KT 10SM OVC065 M04/M15 A3020 RMK AO2 SLP236 T10441150 11044 21056 410441083 58028
Traffic Incident Summary
Active as of:
Severity:
Category:
InformationThere was an issue retrieving the traffic information for this location. Please try a different location or try again shortly.
Advertisements
Track Severe Weather on mobile